Time;durP1;ratioP1;P1;durP2;ratioP2;P2;SDS_P1;SDS_P2;PMS_P1;PMS_P2;Temp;Humidity;BMP_temperature;BMP_pressure;BME280_temperature;BME280_humidity;BME280_pressure;Samples;Min_cycle;Max_cycle;Signal;HPM_P1;HPM_P2
2022/01/22 00:01:36;;;;;;;26.75;12.00;;;;;;;2.83;100.00;102338.13;5072736;28;20169;-62
2022/01/22 00:04:01;;;;;;;25.17;10.70;;;;;;;2.84;100.00;102325.16;5074196;28;20059;-63
2022/01/22 00:06:27;;;;;;;15.00;10.38;;;;;;;2.85;100.00;102337.31;5071589;28;20561;-63
2022/01/22 00:08:52;;;;;;;17.73;11.25;;;;;;;2.88;100.00;102332.16;5074240;28;20394;-63
2022/01/22 00:11:17;;;;;;;16.80;11.77;;;;;;;2.89;100.00;102336.50;5074059;28;20028;-64
2022/01/22 00:16:27;;;;;;;19.10;11.25;;;;;;;2.92;100.00;102322.66;5074579;28;20067;-62
2022/01/22 00:18:52;;;;;;;24.20;10.70;;;;;;;2.92;100.00;102326.13;5074424;28;20483;-64
2022/01/22 00:21:18;;;;;;;16.20;9.85;;;;;;;2.92;100.00;102323.53;5073443;28;20040;-63
2022/01/22 00:23:54;;;;;;;21.38;10.88;;;;;;;2.94;100.00;102329.63;5073490;28;20036;-63
2022/01/22 00:26:19;;;;;;;20.85;10.68;;;;;;;2.95;100.00;102336.56;5073539;28;20025;-63
2022/01/22 00:28:44;;;;;;;23.27;11.80;;;;;;;3.00;100.00;102331.44;5073004;28;20035;-62
2022/01/22 00:31:10;;;;;;;17.60;11.52;;;;;;;3.04;100.00;102334.06;5073416;28;20039;-62
2022/01/22 00:33:35;;;;;;;16.80;10.98;;;;;;;3.04;100.00;102339.25;5073227;28;20075;-62
2022/01/22 00:36:00;;;;;;;19.20;11.82;;;;;;;3.07;100.00;102338.44;5073879;28;20025;-63
2022/01/22 00:38:26;;;;;;;16.70;11.10;;;;;;;3.07;100.00;102334.13;5071815;28;20071;-62
2022/01/22 00:40:51;;;;;;;19.20;12.00;;;;;;;3.07;100.00;102331.53;5072649;28;20462;-62
2022/01/22 00:43:17;;;;;;;32.90;13.02;;;;;;;3.10;100.00;102335.88;5072480;28;20059;-63
2022/01/22 00:45:43;;;;;;;19.17;11.43;;;;;;;3.08;100.00;102328.06;5072465;28;20032;-62
2022/01/22 00:48:08;;;;;;;21.52;12.63;;;;;;;3.09;100.00;102332.41;5072870;28;20620;-62
2022/01/22 00:50:34;;;;;;;36.78;13.63;;;;;;;3.11;100.00;102334.16;5072876;28;20134;-62
2022/01/22 00:52:59;;;;;;;17.38;11.90;;;;;;;3.09;100.00;102324.63;5073833;28;20035;-62
2022/01/22 00:55:24;;;;;;;20.70;12.27;;;;;;;3.09;100.00;102326.34;5073102;28;20035;-63
2022/01/22 00:57:50;;;;;;;23.02;12.45;;;;;;;3.09;100.00;102327.22;5073348;28;20371;-63
2022/01/22 01:00:16;;;;;;;28.50;12.63;;;;;;;3.09;100.00;102327.22;5072107;28;20055;-62
2022/01/22 01:02:43;;;;;;;22.48;12.05;;;;;;;3.14;100.00;102334.19;5069805;28;20491;-62
2022/01/22 01:05:10;;;;;;;24.02;11.90;;;;;;;3.10;100.00;102338.47;5072924;28;20071;-62
2022/01/22 01:07:35;;;;;;;18.35;11.38;;;;;;;3.16;100.00;102338.53;5072860;28;20031;-62
2022/01/22 01:10:01;;;;;;;19.30;11.07;;;;;;;3.17;100.00;102347.22;5073157;28;20335;-62
2022/01/22 01:12:27;;;;;;;18.08;11.60;;;;;;;3.18;100.00;102343.75;5073162;28;20024;-62
2022/01/22 01:15:12;;;;;;;20.23;11.65;;;;;;;3.15;100.00;102335.91;5072651;28;20518;-61
2022/01/22 01:34:11;;;;;;;17.17;11.77;;;;;;;3.21;100.00;102325.63;5072387;28;20040;-63
2022/01/22 01:36:26;;;;;;;23.00;12.93;;;;;;;2.90;100.00;102286.31;5072132;28;20494;-63
2022/01/22 01:38:56;;;;;;;26.35;11.23;;;;;;;3.23;100.00;102329.09;5072461;28;20078;-64
2022/01/22 01:41:51;;;;;;;18.05;11.88;;;;;;;3.23;100.00;102326.50;5072688;28;20024;-63
2022/01/22 01:44:09;;;;;;;31.42;12.02;;;;;;;3.22;100.00;102329.94;5081826;28;20113;-63
2022/01/22 01:46:35;;;;;;;19.80;11.35;;;;;;;3.24;100.00;102328.25;5071907;28;20498;-63
2022/01/22 01:49:02;;;;;;;16.48;11.75;;;;;;;2.94;100.00;102277.69;5072575;28;20059;-63
2022/01/22 01:51:31;;;;;;;30.60;11.15;;;;;;;3.05;100.00;102302.06;5072305;28;20028;-63
2022/01/22 01:59:08;;;;;;;16.67;11.02;;;;;;;3.24;100.00;102321.31;5073104;28;20398;-63
2022/01/22 02:01:34;;;;;;;20.67;11.20;;;;;;;3.23;100.00;102313.50;5088332;28;20430;-63
2022/01/22 02:03:59;;;;;;;15.93;10.52;;;;;;;3.24;100.00;102315.25;5072290;28;20095;-63
2022/01/22 02:06:24;;;;;;;20.58;10.77;;;;;;;3.25;100.00;102311.78;5072896;28;20040;-63
2022/01/22 02:08:52;;;;;;;22.77;12.02;;;;;;;3.24;100.00;102325.66;5065258;28;20105;-63
2022/01/22 02:11:19;;;;;;;21.58;11.95;;;;;;;3.23;100.00;102318.69;5072233;28;20040;-63
2022/01/22 02:24:46;;;;;;;20.02;11.93;;;;;;;3.25;100.00;102332.56;5071693;28;20047;-63
2022/01/22 02:27:12;;;;;;;16.15;11.07;;;;;;;3.25;100.00;102324.75;5071149;28;20033;-63
2022/01/22 02:29:38;;;;;;;17.10;11.45;;;;;;;3.23;100.00;102329.97;5072395;28;20040;-63
2022/01/22 02:34:55;;;;;;;19.48;11.77;;;;;;;3.24;100.00;102317.84;5072090;28;20600;-63
2022/01/22 02:37:23;;;;;;;21.42;11.90;;;;;;;3.25;100.00;102311.78;5070489;28;20036;-64
2022/01/22 02:40:08;;;;;;;21.45;11.85;;;;;;;3.24;100.00;102315.25;5087972;28;20390;-63
2022/01/22 02:42:35;;;;;;;19.20;11.80;;;;;;;3.24;100.00;102308.34;5072232;28;20373;-63
2022/01/22 02:45:06;;;;;;;25.60;12.57;;;;;;;3.13;100.00;102285.69;5074574;28;20386;-63
2022/01/22 02:47:32;;;;;;;20.00;11.70;;;;;;;3.23;100.00;102300.50;5070689;28;20044;-63
2022/01/22 02:49:57;;;;;;;21.17;11.80;;;;;;;3.23;100.00;102297.91;5075488;28;20024;-63
2022/01/22 02:52:24;;;;;;;18.00;11.38;;;;;;;3.27;100.00;102303.16;5076106;28;20055;-63
2022/01/22 02:54:49;;;;;;;19.30;11.98;;;;;;;3.12;100.00;102284.81;5070850;28;20386;-63
2022/01/22 02:57:15;;;;;;;22.77;11.85;;;;;;;3.28;100.00;102307.50;5076294;28;20032;-63
2022/01/22 02:59:40;;;;;;;14.32;10.73;;;;;;;3.29;100.00;102310.97;5076285;28;20054;-63
2022/01/22 03:02:06;;;;;;;22.98;11.50;;;;;;;2.90;100.00;102256.91;5073717;28;20032;-64
2022/01/22 03:04:32;;;;;;;17.10;11.35;;;;;;;3.30;100.00;102317.91;5071175;28;20032;-63
2022/01/22 03:06:57;;;;;;;16.45;11.25;;;;;;;3.30;100.00;102338.69;5074178;28;20461;-62
2022/01/22 03:09:28;;;;;;;16.10;10.80;;;;;;;3.29;100.00;102317.03;5073794;28;20083;-63
2022/01/22 03:20:05;;;;;;;22.40;12.73;;;;;;;3.31;100.00;102327.47;5075610;28;20046;-62
2022/01/22 03:27:48;;;;;;;20.13;12.85;;;;;;;3.02;100.00;102273.47;5075227;28;20106;-63
2022/01/22 03:30:13;;;;;;;23.67;12.40;;;;;;;3.29;100.00;102319.63;5074052;28;20078;-63
2022/01/22 03:32:45;;;;;;;14.95;11.07;;;;;;;3.33;100.00;102324.00;5071975;28;20021;-63
2022/01/22 03:35:23;;;;;;;23.73;12.57;;;;;;;3.31;100.00;102319.66;5074827;28;20040;-62
2022/01/22 03:37:52;;;;;;;23.92;13.15;;;;;;;3.28;100.00;102324.81;5074619;28;20032;-63
2022/01/22 03:40:21;;;;;;;24.85;13.93;;;;;;;3.28;100.00;102317.03;5074608;28;20085;-62
2022/01/22 03:42:47;;;;;;;18.88;13.32;;;;;;;3.26;100.00;102318.72;5074062;28;20077;-62
2022/01/22 03:45:12;;;;;;;27.42;14.15;;;;;;;3.24;100.00;102316.13;5073040;28;20024;-62
2022/01/22 03:47:38;;;;;;;21.67;13.70;;;;;;;3.19;100.00;102311.72;5073654;28;20161;-62
2022/01/22 03:50:05;;;;;;;26.48;14.80;;;;;;;3.21;100.00;102320.41;5074157;28;20151;-63
2022/01/22 03:52:31;;;;;;;28.92;14.02;;;;;;;3.18;100.00;102321.22;5073533;28;20032;-62
2022/01/22 03:54:56;;;;;;;25.40;14.88;;;;;;;3.17;100.00;102318.63;5074020;28;20078;-62
2022/01/22 03:57:23;;;;;;;24.08;15.00;;;;;;;3.17;100.00;102318.63;5074451;28;20032;-62
2022/01/22 03:59:50;;;;;;;20.23;15.00;;;;;;;3.13;100.00;102322.06;5073269;28;20428;-62
2022/01/22 04:05:17;;;;;;;25.83;16.13;;;;;;;3.09;100.00;102313.34;5049814;28;20047;-62
2022/01/22 04:10:26;;;;;;;23.95;16.08;;;;;;;3.09;100.00;102322.03;5072535;28;20094;-62
2022/01/22 04:13:05;;;;;;;32.22;20.17;;;;;;;3.08;100.00;102325.47;5073923;28;20024;-63
2022/01/22 04:15:34;;;;;;;30.67;18.55;;;;;;;3.06;100.00;102322.00;5073395;28;20033;-63
2022/01/22 04:26:22;;;;;;;30.75;21.27;;;;;;;3.04;100.00;102323.69;5074406;28;20043;-62
2022/01/22 04:28:47;;;;;;;36.70;22.90;;;;;;;3.04;100.00;102326.28;5064328;28;20119;-63
2022/01/22 04:31:13;;;;;;;30.52;21.95;;;;;;;3.01;100.00;102318.44;5074046;28;20116;-62
2022/01/22 04:33:39;;;;;;;35.08;22.50;;;;;;;3.02;100.00;102315.00;5074403;28;20075;-62
2022/01/22 04:36:05;;;;;;;39.92;23.73;;;;;;;2.99;100.00;102311.50;5074073;28;20127;-63
2022/01/22 04:38:30;;;;;;;33.97;24.02;;;;;;;3.04;100.00;102318.47;5082437;28;20028;-63
2022/01/22 04:40:55;;;;;;;28.60;23.50;;;;;;;3.04;100.00;102318.47;5073583;28;20124;-62
2022/01/22 04:43:21;;;;;;;36.30;22.42;;;;;;;3.03;100.00;102326.28;5072643;28;20025;-63
2022/01/22 04:56:32;;;;;;;37.45;26.80;;;;;;;3.08;100.00;102324.59;5074441;28;20492;-63
2022/01/22 04:58:57;;;;;;;38.17;26.25;;;;;;;3.09;100.00;102326.34;5073327;28;20029;-63
2022/01/22 05:01:23;;;;;;;39.95;26.33;;;;;;;3.07;100.00;102326.34;5072706;28;20029;-63
2022/01/22 05:03:48;;;;;;;35.03;26.45;;;;;;;3.07;100.00;102323.75;5073142;28;20107;-63
2022/01/22 05:06:13;;;;;;;37.97;26.75;;;;;;;3.06;100.00;102316.78;5072215;28;20055;-63
2022/01/22 05:08:39;;;;;;;53.70;28.23;;;;;;;3.09;100.00;102316.81;5073138;28;20035;-63
2022/01/22 05:11:04;;;;;;;34.28;25.90;;;;;;;3.12;100.00;102325.50;5073258;28;20072;-63
2022/01/22 05:13:29;;;;;;;36.22;28.17;;;;;;;3.10;100.00;102322.91;5072484;28;20043;-63
2022/01/22 05:15:55;;;;;;;31.45;25.58;;;;;;;3.09;100.00;102322.03;5072321;28;20032;-63
2022/01/22 05:18:20;;;;;;;42.63;26.73;;;;;;;3.08;100.00;102320.25;5072370;28;20125;-63
2022/01/22 05:20:54;;;;;;;43.08;26.42;;;;;;;3.08;100.00;102303.81;5072684;28;20032;-63
2022/01/22 05:23:22;;;;;;;42.10;27.75;;;;;;;3.11;100.00;102313.38;5072461;28;20493;-63
2022/01/22 05:25:59;;;;;;;41.88;28.52;;;;;;;3.11;100.00;102318.56;5072593;28;20028;-63
2022/01/22 05:31:24;;;;;;;46.97;29.95;;;;;;;3.14;100.00;102313.41;5072679;28;20085;-63
2022/01/22 05:39:17;;;;;;;52.00;30.35;;;;;;;2.72;100.00;102235.91;5072615;28;20052;-63
2022/01/22 05:41:43;;;;;;;47.33;30.85;;;;;;;3.14;100.00;102321.22;5072219;28;20056;-63
2022/01/22 05:44:08;;;;;;;46.40;30.75;;;;;;;3.13;100.00;102311.66;5072152;28;20029;-62
2022/01/22 05:46:34;;;;;;;44.28;30.17;;;;;;;3.14;100.00;102313.41;5072070;28;20082;-63
2022/01/22 05:49:00;;;;;;;40.53;29.10;;;;;;;3.13;100.00;102307.34;5071755;28;20086;-63
2022/01/22 05:51:25;;;;;;;38.80;29.55;;;;;;;3.12;100.00;102310.78;5071765;28;20462;-62
2022/01/22 06:01:58;;;;;;;44.72;31.05;;;;;;;3.17;100.00;102319.50;5071218;28;20473;-63
2022/01/22 06:04:23;;;;;;;46.13;32.25;;;;;;;3.16;100.00;102322.97;5071564;28;20050;-63
2022/01/22 06:06:49;;;;;;;46.22;30.15;;;;;;;3.16;100.00;102316.88;5072461;28;20047;-63
2022/01/22 06:09:14;;;;;;;46.28;31.58;;;;;;;3.14;100.00;102318.59;5071722;28;20485;-63
2022/01/22 06:12:02;;;;;;;46.00;31.85;;;;;;;3.17;100.00;102326.44;5072386;28;20162;-63
2022/01/22 06:14:28;;;;;;;44.35;30.90;;;;;;;3.15;100.00;102325.53;5071955;28;20122;-63
2022/01/22 06:16:53;;;;;;;47.38;32.10;;;;;;;3.17;100.00;102323.84;5072323;28;20115;-63
2022/01/22 06:19:19;;;;;;;44.30;32.45;;;;;;;3.16;100.00;102325.56;5072528;28;20089;-63
2022/01/22 06:21:44;;;;;;;42.45;32.03;;;;;;;3.16;100.00;102325.56;5062811;28;20028;-63
2022/01/22 06:24:12;;;;;;;47.70;33.13;;;;;;;3.19;100.00;102317.78;5072512;28;20494;-63
2022/01/22 06:26:38;;;;;;;43.15;33.30;;;;;;;3.22;100.00;102335.13;5071929;28;20107;-63
2022/01/22 06:29:04;;;;;;;46.97;34.20;;;;;;;3.19;100.00;102325.59;5070235;28;20035;-63
2022/01/22 06:31:29;;;;;;;52.42;35.05;;;;;;;3.13;100.00;102311.66;5071785;28;20025;-63
2022/01/22 06:33:55;;;;;;;42.92;31.77;;;;;;;3.17;100.00;102318.63;5071469;28;20170;-63
2022/01/22 06:36:20;;;;;;;51.50;33.88;;;;;;;3.22;100.00;102323.00;5071447;28;20029;-62
2022/01/22 06:38:46;;;;;;;43.50;33.75;;;;;;;3.23;100.00;102323.91;5071380;28;20040;-63
2022/01/22 06:41:53;;;;;;;45.55;32.72;;;;;;;3.21;100.00;102323.03;5072214;28;20032;-63
2022/01/22 06:43:59;;;;;;;46.47;32.00;;;;;;;3.21;100.00;102321.25;5067876;28;20131;-63
2022/01/22 06:46:24;;;;;;;46.33;31.52;;;;;;;3.22;100.00;102342.91;5071928;28;20167;-63
2022/01/22 06:48:50;;;;;;;43.55;32.10;;;;;;;3.23;100.00;102337.75;5072363;28;20166;-62
2022/01/22 06:51:17;;;;;;;51.15;32.83;;;;;;;3.24;100.00;102342.09;5072043;28;20521;-63
2022/01/22 06:53:42;;;;;;;45.83;33.35;;;;;;;3.26;100.00;102345.56;5070883;28;20028;-63
2022/01/22 06:56:09;;;;;;;44.22;31.58;;;;;;;3.25;100.00;102353.34;5072109;28;20028;-63
2022/01/22 06:58:35;;;;;;;40.60;30.38;;;;;;;3.26;100.00;102347.31;5072079;28;20082;-63
2022/01/22 07:01:00;;;;;;;45.15;32.75;;;;;;;3.28;100.00;102348.22;5071859;28;20025;-63
2022/01/22 07:03:26;;;;;;;43.47;31.67;;;;;;;3.28;100.00;102345.63;5071148;28;20024;-63
2022/01/22 07:05:51;;;;;;;46.47;33.40;;;;;;;3.29;100.00;102355.13;5071256;28;20067;-63
2022/01/22 07:08:16;;;;;;;43.05;31.52;;;;;;;3.29;100.00;102342.13;5088533;28;20055;-63
2022/01/22 07:10:42;;;;;;;49.92;37.88;;;;;;;3.15;100.00;102325.53;5091986;28;20020;-63
2022/01/22 07:13:07;;;;;;;53.90;35.25;;;;;;;3.30;100.00;102341.28;5091979;28;20122;-63
2022/01/22 07:15:33;;;;;;;47.30;33.80;;;;;;;3.29;100.00;102356.00;5091688;28;20056;-63
2022/01/22 07:17:58;;;;;;;40.90;34.40;;;;;;;3.33;100.00;102365.56;5081035;28;20097;-63
2022/01/22 07:20:29;;;;;;;45.45;33.53;;;;;;;3.33;100.00;102368.16;5071337;28;20033;-63
2022/01/22 07:23:15;;;;;;;44.45;34.47;;;;;;;3.07;100.00;102341.91;5070349;28;20036;-63
2022/01/22 07:25:41;;;;;;;45.20;32.72;;;;;;;3.06;100.00;102328.91;5070988;28;20051;-63
2022/01/22 07:28:07;;;;;;;56.65;33.25;;;;;;;3.35;100.00;102387.22;5071178;28;20124;-61
2022/01/22 07:30:32;;;;;;;45.50;32.65;;;;;;;3.37;100.00;102395.94;5088751;28;20115;-63
2022/01/22 07:32:58;;;;;;;47.90;32.58;;;;;;;3.38;100.00;102391.63;5075351;28;20024;-62
2022/01/22 07:35:23;;;;;;;44.70;32.72;;;;;;;3.39;100.00;102398.53;5072448;28;20120;-62
2022/01/22 07:37:48;;;;;;;55.03;36.20;;;;;;;3.37;100.00;102395.06;5072169;28;20064;-62
2022/01/22 07:40:14;;;;;;;50.13;32.92;;;;;;;3.39;100.00;102398.53;5073433;28;20079;-61
2022/01/22 07:42:40;;;;;;;55.30;34.35;;;;;;;3.38;100.00;102396.81;5072985;28;20028;-62
2022/01/22 07:45:07;;;;;;;42.67;32.35;;;;;;;3.38;100.00;102402.00;5032322;28;20919;-62
2022/01/22 07:47:32;;;;;;;47.35;31.75;;;;;;;3.28;100.00;102374.19;5028993;28;20024;-62
2022/01/22 07:49:58;;;;;;;46.78;33.60;;;;;;;3.39;100.00;102395.94;5028484;28;20081;-62
2022/01/22 07:52:23;;;;;;;49.78;32.67;;;;;;;3.40;100.00;102397.69;5029250;28;20123;-62
2022/01/22 07:54:49;;;;;;;45.47;33.15;;;;;;;3.40;100.00;102395.09;5028652;28;20079;-62
2022/01/22 07:57:15;;;;;;;41.25;31.85;;;;;;;3.13;100.00;102353.22;5030242;28;20031;-62
2022/01/22 07:59:40;;;;;;;46.15;33.38;;;;;;;3.43;100.00;102408.13;5055275;28;20062;-62
2022/01/22 08:02:06;;;;;;;38.55;31.35;;;;;;;3.22;100.00;102368.88;5061273;28;20371;-63
2022/01/22 08:04:31;;;;;;;41.50;31.77;;;;;;;3.30;100.00;102378.53;5063261;28;20048;-64
2022/01/22 08:06:59;;;;;;;43.20;32.50;;;;;;;3.48;100.00;102409.06;5055311;28;20039;-62
2022/01/22 08:09:24;;;;;;;49.70;32.60;;;;;;;3.36;100.00;102380.31;5049246;28;20044;-62
2022/01/22 08:11:50;;;;;;;45.67;33.00;;;;;;;3.33;100.00;102378.56;5044656;28;20031;-64
2022/01/22 08:14:16;;;;;;;44.72;31.55;;;;;;;3.54;100.00;102404.78;5062357;28;20035;-63
2022/01/22 08:16:42;;;;;;;46.97;33.33;;;;;;;3.57;100.00;102410.03;5056125;28;20040;-62
2022/01/22 08:19:07;;;;;;;40.95;31.15;;;;;;;3.58;100.00;102416.09;5060858;28;20036;-62
2022/01/22 08:21:33;;;;;;;43.80;33.33;;;;;;;3.36;100.00;102373.41;5051992;28;20031;-62
2022/01/22 08:23:58;;;;;;;46.83;32.92;;;;;;;3.63;100.00;102406.59;5075299;28;20453;-62
2022/01/22 08:26:28;;;;;;;43.90;32.72;;;;;;;3.68;100.00;102398.88;5080704;28;20484;-62
2022/01/22 08:28:53;;;;;;;56.72;34.78;;;;;;;3.72;100.00;102404.09;5089133;28;20077;-62
2022/01/22 08:36:39;;;;;;;47.83;33.53;;;;;;;3.80;100.00;102402.44;5075855;28;20492;-63
2022/01/22 08:39:05;;;;;;;56.80;34.58;;;;;;;3.80;100.00;102402.44;5091879;28;20032;-62
2022/01/22 08:41:31;;;;;;;51.22;33.40;;;;;;;3.83;100.00;102405.06;5083340;28;20112;-62
2022/01/22 08:43:58;;;;;;;45.35;32.72;;;;;;;3.86;100.00;102405.09;5069279;28;20148;-64
2022/01/22 08:46:24;;;;;;;46.50;32.15;;;;;;;3.92;100.00;102415.56;5070604;28;20125;-64
2022/01/22 08:48:49;;;;;;;47.55;30.55;;;;;;;3.95;100.00;102428.63;5065123;28;20547;-64
2022/01/22 08:51:15;;;;;;;47.65;31.10;;;;;;;3.95;100.00;102415.59;5051130;28;20857;-62
2022/01/22 08:53:41;;;;;;;47.78;32.78;;;;;;;3.97;100.00;102418.22;5030862;28;20032;-61
2022/01/22 08:56:08;;;;;;;44.83;31.45;;;;;;;3.99;100.00;102427.75;5029520;28;20102;-65
2022/01/22 08:58:34;;;;;;;41.60;30.50;;;;;;;4.00;100.00;102420.84;5042276;28;20040;-71
2022/01/22 09:00:59;;;;;;;48.97;31.42;;;;;;;4.02;100.00;102419.13;5039236;28;20857;-63
2022/01/22 09:03:25;;;;;;;42.25;30.77;;;;;;;3.88;100.00;102389.53;5030646;28;20040;-63
2022/01/22 09:05:51;;;;;;;39.40;31.08;;;;;;;4.07;100.00;102417.44;5029402;28;20179;-63
2022/01/22 09:08:16;;;;;;;49.83;30.90;;;;;;;4.08;100.00;102422.66;5030603;28;20032;-63
2022/01/22 09:10:43;;;;;;;44.67;32.20;;;;;;;4.06;100.00;102416.56;5030050;28;20878;-62
2022/01/22 09:13:09;;;;;;;41.03;31.08;;;;;;;4.05;100.00;102422.63;5028964;28;20038;-63
2022/01/22 09:15:35;;;;;;;37.88;29.92;;;;;;;3.66;100.00;102349.44;5030140;28;20040;-63
2022/01/22 09:18:00;;;;;;;45.70;34.35;;;;;;;4.08;100.00;102429.59;5029808;28;20135;-63
2022/01/22 09:23:07;;;;;;;43.03;31.55;;;;;;;4.13;100.00;102431.38;5029147;28;20788;-63
2022/01/22 09:25:33;;;;;;;52.05;35.10;;;;;;;4.19;100.00;102427.09;5031014;28;20090;-62
2022/01/22 09:27:58;;;;;;;45.08;33.85;;;;;;;4.17;100.00;102431.38;5034568;28;20569;-63
2022/01/22 09:30:24;;;;;;;47.78;33.55;;;;;;;4.17;100.00;102428.78;5038985;28;20040;-62
2022/01/22 09:32:49;;;;;;;46.70;36.25;;;;;;;4.18;100.00;102435.75;5039193;28;20031;-62
2022/01/22 09:35:15;;;;;;;49.75;33.58;;;;;;;4.18;100.00;102435.75;5041980;28;20036;-62
2022/01/22 09:37:41;;;;;;;42.17;32.05;;;;;;;4.23;100.00;102436.63;5059283;28;20044;-63
2022/01/22 09:40:07;;;;;;;46.60;34.60;;;;;;;4.22;100.00;102442.72;5039202;28;20036;-63
2022/01/22 09:42:32;;;;;;;52.88;35.13;;;;;;;4.27;100.00;102451.41;5039027;28;20024;-63
2022/01/22 09:44:58;;;;;;;46.13;34.67;;;;;;;4.29;100.00;102444.53;5038406;28;20560;-63
2022/01/22 09:47:23;;;;;;;49.63;35.35;;;;;;;4.32;100.00;102449.75;5043250;28;20557;-63
2022/01/22 09:49:48;;;;;;;50.15;36.53;;;;;;;3.91;100.00;102380.03;5042306;28;20028;-62
2022/01/22 09:52:14;;;;;;;44.00;35.83;;;;;;;4.31;100.00;102448.88;5040601;28;20053;-63
2022/01/22 09:54:39;;;;;;;55.20;36.70;;;;;;;4.33;100.00;102452.34;5036936;28;20140;-63
2022/01/22 09:57:06;;;;;;;53.80;37.33;;;;;;;4.39;100.00;102456.75;5038818;28;20036;-63
2022/01/22 09:59:32;;;;;;;52.40;37.45;;;;;;;4.39;100.00;102451.53;5041777;28;20032;-63
2022/01/22 10:02:17;;;;;;;52.35;36.47;;;;;;;4.41;100.00;102455.91;5043934;28;20394;-63
2022/01/22 10:04:48;;;;;;;45.78;34.30;;;;;;;4.46;100.00;102462.00;5039099;28;20105;-63
2022/01/22 10:07:20;;;;;;;52.38;36.10;;;;;;;4.49;100.00;102456.84;5039394;28;20875;-63
2022/01/22 10:10:06;;;;;;;46.22;35.67;;;;;;;4.48;100.00;102454.22;5035567;28;20039;-63
2022/01/22 10:12:43;;;;;;;51.13;36.75;;;;;;;4.54;100.00;102456.84;5038060;28;20032;-63
2022/01/22 10:15:20;;;;;;;55.63;36.88;;;;;;;4.54;100.00;102462.94;5040552;28;20025;-63
2022/01/22 10:17:46;;;;;;;51.13;37.20;;;;;;;4.61;100.00;102458.63;5043881;28;20032;-63
2022/01/22 10:20:20;;;;;;;53.60;35.95;;;;;;;4.64;100.00;102453.44;5042901;28;20044;-63
2022/01/22 10:22:46;;;;;;;44.13;35.08;;;;;;;4.71;100.00;102455.25;5039814;28;20144;-63
2022/01/22 10:25:23;;;;;;;50.10;36.40;;;;;;;4.78;100.00;102467.44;5040586;28;20032;-63
2022/01/22 10:28:02;;;;;;;55.70;35.00;;;;;;;4.86;100.00;102470.13;5034256;28;20135;-63
2022/01/22 10:30:39;;;;;;;48.25;35.70;;;;;;;4.76;100.00;102443.16;5026561;28;20032;-63
2022/01/22 10:33:30;;;;;;;56.83;35.70;;;;;;;4.95;100.00;102460.63;5026870;28;20028;-64
2022/01/22 10:36:11;;;;;;;48.65;33.63;;;;;;;4.96;100.00;102461.50;5028009;28;20086;-63
2022/01/22 10:38:43;;;;;;;53.53;33.45;;;;;;;5.01;100.00;102464.97;5027160;28;20032;-66
2022/01/22 10:41:09;;;;;;;59.10;33.80;;;;;;;5.00;100.00;102458.88;5026934;28;20136;-64
2022/01/22 10:43:41;;;;;;;48.30;32.85;;;;;;;5.04;100.00;102460.66;5026833;28;20029;-68
2022/01/22 10:46:19;;;;;;;48.08;33.58;;;;;;;5.13;100.00;102455.53;5031572;28;20029;-67
2022/01/22 10:48:59;;;;;;;51.95;31.60;;;;;;;5.18;100.00;102462.47;5030727;28;20025;-64
2022/01/22 10:51:27;;;;;;;40.15;31.50;;;;;;;5.27;100.00;102452.09;5026731;28;20804;-64
2022/01/22 10:53:57;;;;;;;44.00;30.38;;;;;;;5.37;100.00;102456.50;5027438;28;20954;-66
2022/01/22 10:56:23;;;;;;;49.65;31.67;;;;;;;5.41;100.00;102450.41;5043739;28;20032;-65
2022/01/22 10:58:53;;;;;;;45.95;29.00;;;;;;;5.43;100.00;102460.00;5037954;28;20037;-63
2022/01/22 11:01:19;;;;;;;38.13;28.85;;;;;;;5.43;100.00;102449.56;5037103;28;20286;-64
2022/01/22 11:03:44;;;;;;;40.58;29.02;;;;;;;5.47;100.00;102453.94;5027044;28;20059;-65
2022/01/22 11:06:27;;;;;;;37.03;27.92;;;;;;;5.19;100.00;102397.34;5029887;28;20024;-63
2022/01/22 11:08:53;;;;;;;41.08;29.10;;;;;;;5.46;100.00;102438.28;5031249;28;20923;-62
2022/01/22 11:11:19;;;;;;;38.42;29.70;;;;;;;5.47;100.00;102434.81;5031720;28;20357;-63
2022/01/22 11:13:44;;;;;;;38.13;27.70;;;;;;;5.51;100.00;102437.41;5033299;28;20119;-63
2022/01/22 11:16:10;;;;;;;42.00;27.63;;;;;;;5.56;100.00;102440.06;5031398;28;20833;-63
2022/01/22 11:18:40;;;;;;;37.80;28.00;;;;;;;5.61;100.00;102439.19;5035367;28;20035;-63
2022/01/22 11:21:06;;;;;;;42.63;26.73;;;;;;;5.65;100.00;102438.34;5031311;28;20032;-63
2022/01/22 11:23:34;;;;;;;41.75;27.55;;;;;;;5.49;100.00;102401.78;5030125;28;20042;-63
2022/01/22 11:26:01;;;;;;;34.80;26.30;;;;;;;5.77;100.00;102437.50;5032007;28;20178;-63
2022/01/22 11:28:26;;;;;;;48.10;29.08;;;;;;;5.80;100.00;102432.28;5029681;28;20979;-63
2022/01/22 11:30:53;;;;;;;32.45;24.45;;;;;;;5.89;100.00;102444.50;5039566;28;20040;-63
2022/01/22 11:33:21;;;;;;;35.67;25.92;;;;;;;5.89;100.00;102442.78;5058088;28;20027;-63
2022/01/22 11:36:02;;;;;;;39.40;25.98;;;;;;;5.85;100.00;102459.25;5052046;28;20034;-63
2022/01/22 11:38:30;;;;;;;37.72;27.13;;;;;;;5.84;100.00;102446.22;5050667;28;20052;-63
2022/01/22 11:41:15;;;;;;;36.85;25.55;;;;;;;5.88;100.00;102443.63;5047179;28;20020;-62
2022/01/22 11:44:14;;;;;;;34.38;24.55;;;;;;;5.92;100.00;102437.56;5030120;28;20240;-62
2022/01/22 11:46:44;;;;;;;33.55;24.70;;;;;;;5.99;100.00;102434.09;5031341;28;20246;-62
2022/01/22 11:49:18;;;;;;;31.88;25.30;;;;;;;6.04;100.00;102431.50;5044727;28;20082;-63
2022/01/22 11:51:46;;;;;;;48.80;24.55;;;;;;;6.10;100.00;102440.19;5030081;28;20032;-63
2022/01/22 11:54:12;;;;;;;35.13;25.58;;;;;;;5.78;100.00;102375.78;5031235;28;20259;-63
2022/01/22 11:56:48;;;;;;;32.95;23.20;;;;;;;6.18;100.00;102431.50;5055328;28;20028;-63
2022/01/22 11:59:15;;;;;;;40.58;24.90;;;;;;;6.21;100.00;102431.50;5030125;28;20039;-63
2022/01/22 12:04:15;;;;;;;31.35;24.08;;;;;;;6.25;100.00;102423.69;5028640;28;20044;-63
2022/01/22 12:07:02;;;;;;;38.28;24.17;;;;;;;6.29;100.00;102425.41;5045828;28;20131;-63
2022/01/22 12:10:05;;;;;;;36.78;21.75;;;;;;;6.31;100.00;102428.03;5028366;28;20121;-63
2022/01/22 12:15:31;;;;;;;30.98;22.35;;;;;;;6.39;100.00;102421.06;5033284;28;20047;-62
2022/01/22 12:18:07;;;;;;;;;;;;;;;6.37;100.00;102421.06;5030578;28;20038;-62
2022/01/22 12:21:30;;;;;;;31.92;20.67;;;;;;;6.35;100.00;102424.56;5027778;28;20023;-62
2022/01/22 12:23:31;;;;;;;33.47;21.70;;;;;;;6.35;100.00;102427.16;5028882;28;20117;-62
2022/01/22 12:25:57;;;;;;;28.77;23.30;;;;;;;6.32;100.00;102425.41;5032927;28;20051;-62
2022/01/22 12:28:32;;;;;;;30.88;21.95;;;;;;;6.34;100.00;102422.81;5041558;28;20021;-62
2022/01/22 12:31:05;;;;;;;34.75;21.88;;;;;;;6.24;100.00;102416.72;5040440;28;20186;-63
2022/01/22 12:33:30;;;;;;;29.20;21.95;;;;;;;6.22;100.00;102407.16;5041880;28;20991;-62
2022/01/22 12:35:57;;;;;;;25.42;19.73;;;;;;;6.21;100.00;102408.03;5029409;28;20021;-62
2022/01/22 12:41:47;;;;;;;32.03;21.98;;;;;;;6.19;100.00;102408.00;5035956;28;20055;-63
2022/01/22 12:47:02;;;;;;;30.23;20.70;;;;;;;6.18;100.00;102405.41;5032885;28;20040;-63
2022/01/22 12:49:28;;;;;;;29.60;19.88;;;;;;;6.14;100.00;102407.16;5039705;28;20043;-63
2022/01/22 12:51:55;;;;;;;30.35;21.25;;;;;;;6.10;100.00;102402.78;5031455;28;20039;-63
2022/01/22 12:54:29;;;;;;;32.08;19.38;;;;;;;6.08;100.00;102409.75;5043029;28;20051;-71
2022/01/22 12:57:03;;;;;;;35.70;22.27;;;;;;;6.08;100.00;102413.22;5033302;28;20024;-63
2022/01/22 12:59:30;;;;;;;32.38;21.30;;;;;;;6.04;100.00;102419.31;5030902;28;20041;-63
2022/01/22 13:01:55;;;;;;;31.45;21.70;;;;;;;6.01;100.00;102413.22;5034021;28;20036;-63
2022/01/22 13:04:21;;;;;;;25.92;19.35;;;;;;;5.79;100.00;102367.94;5049421;28;20811;-63
2022/01/22 13:06:50;;;;;;;37.42;21.13;;;;;;;5.99;100.00;102413.22;5055580;28;20029;-63